Tiempo atmosférico en la estación meteorológica de Buitrago del Lozoya, Madrid (1026 m.)



Fecha
DESCASC
Temp. máxima en grados centígrados (hora)
DESCASC
Temp. mínima en grados centígrados (hora)
DESCASC
Temp. media en grados centígrados
DESCASC
Racha de viento máxima en m/sg (hora)
DESCASC
Velocidad máxima media en intervalos de 10 minutos(hora)
DESCASC
Precipitaciones diarias en mm
DESCASC
Precipitaciones de 00:00 a 06:00 en mm
DESCASC
Precipitaciones de 06:00 a 12:00 en mm
DESCASC
Precipitaciones de 12:00 a 18:00 en mm
DESCASC
Precipitaciones de 18:00 a 24:00 en mm
DESCASC
18-10-2018 17.3 (13:30) 7.6 (03:00) 12.4 7.22 (22:40) 3.61 (14:40) 0.3 0 0 0 0.3
17-10-2018 17.9 (14:00) 3.6 (08:20) 10.7 5.28 (14:10) 2.78 (13:50) 0 0 0 0 0
16-10-2018 18.6 (15:50) 3.6 (08:40) 11.1 5.28 (16:30) 2.78 (16:30) 0 0 0 0 0
15-10-2018 12.8 (14:20) 5.4 (09:10) 9.1 11.11 (00:40) 4.72 (00:40) 0.1 0.1 0 0 0
14-10-2018 14.6 (02:30) 8 (00:00) 11.3 11.11 (19:00) 5.28 (17:10) 6.8 0 6.5 0.3 0
13-10-2018 21.1 (16:20) 9.2 (00:00) 15.2 6.39 (16:10) 3.61 (15:30) 0 0 0 0 0
12-10-2018 18.9 (16:40) 12.3 (00:00) 15.6 8.33 (14:00) 5 (14:10) 0.1 0.1 0 0 0
11-10-2018 17.5 (15:50) 8.8 (02:10) 13.2 7.22 (15:00) 3.89 (16:10) 2.9 0 0.7 2.2 0
10-10-2018 13.5 (16:10) 7.1 (00:00) 10.3 6.94 (17:40) 3.06 (16:20) 15.3 14.9 0.4 0 0
09-10-2018 16.6 (15:20) 1.4 (08:20) 9 8.33 (19:40) 3.89 (14:50) 5.2 0 0 0 5.2
08-10-2018 16.9 (15:20) 3.1 (05:40) 10 6.94 (14:30) 3.33 (14:50) 0 0 0 0 0
07-10-2018 14.1 (16:20) 4.9 (08:30) 9.5 12.5 (11:20) 6.67 (12:10) 0 0 0 0 0
06-10-2018 25.6 (14:40) 4.3 (08:40) 15 10.83 (17:40) 5.56 (23:59) 0 0 0 0 0
05-10-2018 24.8 (15:40) 3.1 (08:30) 13.9 6.39 (16:50) 3.61 (16:50) 0 0 0 0 0
04-10-2018 -- (--) -- (--) -- 8.89 (16:00) 3.33 (15:20) 0 0 0 0 0
03-10-2018 25.7 (16:20) 5.8 (00:00) 15.8 5.56 (18:10) 2.5 (18:10) 0 0 0 0 0
02-10-2018 24.6 (16:40) 2.1 (00:00) 13.4 5.83 (12:50) 3.33 (16:00) 0 0 0 0 0
01-10-2018 22.7 (16:10) 5.3 (00:00) 14 9.44 (14:30) 4.72 (17:30) 0 0 0 0 0
30-09-2018 -- (--) -- (--) -- 8.33 (15:20) 4.72 (16:10) 0 0 0 0 0
29-09-2018 26.9 (16:00) 6.5 (00:00) 16.7 6.67 (15:00) 3.33 (15:00) 0 0 0 0 0
28-09-2018 27.2 (16:00) 8.5 (00:00) 17.9 5.83 (14:20) 2.78 (17:50) 0 0 0 0 0
27-09-2018 -- (--) -- (--) -- 6.94 (13:00) 2.78 (18:30) 0 0 0 0 0
26-09-2018 22.8 (18:50) 11.7 (00:00) 17.2 4.44 (22:00) 2.22 (00:20) 0 0 0 0 0
25-09-2018 27.5 (16:30) 7.4 (00:00) 17.5 5.56 (13:20) 2.78 (13:20) 0 0 0 0 0
24-09-2018 29 (16:10) 8.7 (00:00) 18.8 8.33 (16:20) 4.17 (17:00) 0 0 0 0 0
23-09-2018 30.2 (16:10) 9.2 (07:30) 19.7 8.61 (15:10) 4.17 (17:20) 0 0 0 0 0
22-09-2018 29.9 (17:00) 9.9 (08:10) 19.9 6.39 (14:50) 3.61 (15:50) 0 0 0 0 0
21-09-2018 27.4 (16:40) 10.7 (08:10) 19 14.17 (15:20) 3.89 (15:20) 0 0 0 0 0
20-09-2018 27.3 (13:40) 10.9 (07:10) 19.1 8.61 (14:20) 4.17 (14:30) 1 0 0 1 0

Gráficas

Temp. máximas Temp. mínimas Temp. medias Precipitaciones Rachas de viento máximas Velocidades máximas media en intervalos de 10 minutos

Datos horarios

Fecha y hora oficial Temperatura (ºC) Velocidad del viento (km/h) Dirección del viento Racha (km/h) Dirección de racha Precipitación (mm) Presión (hPa) Tendencia (hPa) Humedad (%)
2018-10-19 23:00:00 11.1 6 Oeste 10 Oeste 0.2 904.3 1.4 87
2018-10-19 22:00:00 11 4 Nordeste 7 Nordeste 0.3 903.7 2 85
2018-10-19 21:00:00 11.3 2 Nordeste 12 Norte 0.1 903.3 2.2 83
2018-10-19 20:00:00 11.7 5 Norte 12 Nordeste 0.3 902.9 1.7 84
2018-10-19 19:00:00 12.4 4 Nordeste 24 Nordeste 1 901.7 0.5 83
2018-10-19 18:00:00 13.1 9 Nordeste 19 Nordeste 0.2 901.1 -0.2 77
2018-10-19 17:00:00 13.1 4 Nordeste 21 Este 0 901.2 -0.4 76
2018-10-19 16:00:00 13.3 10 Nordeste 23 Nordeste 0 901.2 -0.6 75
2018-10-19 15:00:00 13 5 Nordeste 20 Nordeste 0.3 901.3 -0.2 81
2018-10-19 14:00:00 12.6 7 Nordeste 18 Norte 1.8 901.6 0.5 83
2018-10-19 13:00:00 12.4 4 Nordeste 16 Nordeste 0.7 901.8 0.9 84
2018-10-19 12:00:00 11.9 5 Nordeste 14 Nordeste 0.4 901.5 1.4 88
2018-10-19 11:00:00 11.6 0 Calma 8 Este 0.9 901.1 1.3 90
2018-10-19 10:00:00 11 4 Noroeste 10 Oeste 3 900.9 1.4 90
2018-10-19 09:00:00 10.7 5 Oeste 10 Oeste 2.1 900.1 0.5 90
2018-10-19 08:00:00 10.7 3 Noroeste 8 Noroeste 1.9 899.8 0.3 87
2018-10-19 07:00:00 10.6 6 Noroeste 12 Noroeste 0.1 899.5 0.2 87
2018-10-19 06:00:00 10.8 3 Noroeste 17 Nordeste 0 899.6 0.3 86
2018-10-19 05:00:00 11.4 7 Nordeste 18 Este 0.8 899.5 0.2 80
2018-10-19 04:00:00 12 3 Norte 20 Nordeste 0.9 899.3 -0.1 83
2018-10-19 03:00:00 12 5 Norte 15 Norte 0.5 899.3 -0.4 80
2018-10-19 02:00:00 12.5 3 Nordeste 24 Este 0.1 899.3 -0.5 74
2018-10-19 01:00:00 12.7 6 Nordeste 21 Norte 0 899.4 0.7 73
2018-10-19 00:00:00 12.3 2 Nordeste 14 Norte 0.2 899.7 0.6 76
2018-10-18 23:00:00 12.7 4 Nordeste 26 Nordeste 0.1 899.8 1.1 73
2018-10-18 22:00:00 14.1 6 Nordeste 20 Este 0 898.7 0.7 58
2018-10-18 21:00:00 14.7 9 Nordeste 20 Norte 0 899.1 1.3 54
2018-10-18 20:00:00 15 9 Nordeste 18 Norte 0 898.7 0.8 52
2018-10-18 19:00:00 15.7 5 Nordeste 16 Nordeste 0 898 0.2 50
2018-10-18 18:00:00 16.1 9 Nordeste 22 Este 0 897.8 -0.5 48
2018-10-18 17:00:00 16.8 11 Nordeste 24 Norte 0 897.9 -0.7 45
2018-10-18 16:00:00 16.3 12 Nordeste 24 Nordeste 0 897.8 -1 48
2018-10-18 15:00:00 16.3 9 Este 24 Nordeste 0 898.3 -0.6 47
2018-10-18 14:00:00 17 6 Nordeste 15 Norte 0 898.6 -0.5 44
2018-10-18 13:00:00 16.1 3 Norte 11 Norte 0 898.8 0 48
2018-10-18 12:00:00 13.4 3 Noroeste 9 Oeste 0 898.9 0.4 70
2018-10-18 11:00:00 10.6 0 Calma 12 Oeste 0 899.1 0.9 82
2018-10-18 10:00:00 9.5 5 Oeste 11 Oeste 0 898.8 0.4 84
2018-10-18 09:00:00 9 0 Calma 11 Oeste 0 898.5 0.3 85
2018-10-18 08:00:00 8.7 2 Noroeste 7 Oeste 0 898.2 -0.1 84
2018-10-18 07:00:00 8.5 3 Oeste 7 Oeste 0 898.4 -0.4 84
2018-10-18 06:00:00 8.6 4 Oeste 8 Oeste 0 898.2 -1 85
2018-10-18 05:00:00 8.3 3 Noroeste 7 Oeste 0 898.3 -1.2 86
2018-10-18 04:00:00 7.6 2 Oeste 5 Noroeste 0 898.8 -1 85
2018-10-18 03:00:00 7.6 0 Calma 7 Noroeste 0 899.2 -0.8 83
2018-10-18 02:00:00 8.5 0 Calma 6 Noroeste 0 899.5 -0.6 82
2018-10-18 01:00:00 8.5 0 Calma 5 Oeste 0 899.8 -0.3 82
2018-10-18 00:00:00 9.2 0 Calma 4 Oeste 0 900 -0.2 76
2018-10-17 23:00:00 10.2 0 Calma 5 Nordeste 0 900.1 0.3 70
2018-10-17 22:00:00 12.2 3 Nordeste 12 Norte 0 900.1 0.7 60
2018-10-17 21:00:00 12.3 6 Nordeste 11 Nordeste 0 900.2 0.5 59
2018-10-17 20:00:00 12.2 3 Nordeste 6 Nordeste 0 899.8 -0.4 57
2018-10-17 19:00:00 16.1 3 Norte 18 Nordeste 0 899.4 -1.3 44
2018-10-17 18:00:00 17.2 6 Norte 19 Nordeste 0 899.7 -1.7 44
2018-10-17 17:00:00 16.8 7 Nordeste 15 Este 0 900.2 -1.9 47
2018-10-17 16:00:00 16.7 5 Nordeste 15 Este 0 900.7 -2.5 47
2018-10-17 15:00:00 16.9 6 Nordeste 19 Norte 0 901.4 -2.3 45
2018-10-17 14:00:00 17.8 6 Norte 19 Nordeste 0 902.1 -2.1 44
2018-10-17 13:00:00 16.9 4 Nordeste 11 Este 0 903.2 -1 47
2018-10-17 12:00:00 15.4 3 Nordeste 9 Noroeste 0 903.7 -0.7 51
2018-10-17 11:00:00 12.2 0 Calma 4 Noroeste 0 904.2 -0.1 69
2018-10-17 10:00:00 8.1 0 Calma 6 Oeste 0 904.2 -0.4 87
2018-10-17 09:00:00 5.4 0 Calma 9 Oeste 0 904.4 -0.2 91
2018-10-17 08:00:00 3.8 0 Calma 3 Noroeste 0 904.3 0 90
2018-10-17 07:00:00 4.3 0 Calma 9 Noroeste 0 904.6 0.6 90
2018-10-17 06:00:00 5 5 Noroeste 7 Noroeste 0 904.6 0.1 89
2018-10-17 05:00:00 5.4 0 Calma 9 Noroeste 0 904.3 -0.1 89
2018-10-17 04:00:00 6.1 0 Calma 7 Noroeste 0 904 -0.7 88
2018-10-17 03:00:00 6.8 3 Noroeste 7 Oeste 0 904.5 -0.3 88
2018-10-17 02:00:00 6.8 3 Oeste 5 Oeste 0 904.4 -0.4 86
2018-10-17 01:00:00 8.2 0 Calma 8 Oeste 0 904.7 0.4 83
2018-10-17 00:00:00 8.9 4 Oeste 8 Oeste 0 904.8 1 83
2018-10-16 23:00:00 9.4 0 Calma 13 Noroeste 0 904.8 1.4 77
2018-10-16 22:00:00 10.8 0 Calma 10 Norte 0 904.3 1.4 73
2018-10-16 21:00:00 13 2 Nordeste 9 Norte 0 903.8 1.3 61
2018-10-16 20:00:00 15 5 Norte 13 Noroeste 0 903.4 1.1 53
2018-10-16 19:00:00 16.5 7 Norte 18 Norte 0 902.9 1 49
2018-10-16 18:00:00 17.3 7 Norte 16 Noroeste 0 902.5 0.7 46
2018-10-16 17:00:00 17.1 7 Noroeste 19 Norte 0 902.3 0.3 47
2018-10-16 16:00:00 18.5 4 Nordeste 14 Nordeste 0 901.9 -0.2 41
2018-10-16 15:00:00 17.8 6 Nordeste 13 Nordeste 0 901.8 -0.1 43
2018-10-16 14:00:00 16.1 0 Calma 16 Norte 0 902 0.2 48
2018-10-16 13:00:00 16.3 4 Nordeste 10 Noroeste 0 902.1 0.7 48
2018-10-16 12:00:00 14.3 3 Noroeste 9 Oeste 0 901.9 1.1 54
2018-10-16 11:00:00 11.8 0 Calma 7 Noroeste 0 901.8 1.6 69
2018-10-16 10:00:00 7.9 3 Oeste 6 Oeste 0 901.4 1.8 86
2018-10-16 09:00:00 4.8 2 Noroeste 6 Noroeste 0 900.8 1.4 90
2018-10-16 08:00:00 4 0 Calma 5 Oeste 0 900.2 1 89
2018-10-16 07:00:00 5.2 0 Calma 9 Noroeste 0 899.6 0.4 90
2018-10-16 06:00:00 5.3 0 Calma 3 Norte 0 899.4 0.3 89
2018-10-16 05:00:00 6.2 0 Calma 5 Noroeste 0 899.2 0.2 89
2018-10-16 04:00:00 6 2 Noroeste 4 Noroeste 0 899.2 0.2 87
2018-10-16 03:00:00 7.9 0 Calma 5 Nordeste 0 899.1 -0.1 87
2018-10-16 02:00:00 8.5 0 Calma 4 Nordeste 0 899 0 86
2018-10-16 01:00:00 8.4 0 Calma 5 Noroeste 0 899 0.6 86
2018-10-16 00:00:00 7.9 0 Calma 4 Oeste 0 899.2 1.4 83
2018-10-15 23:00:00 8.8 0 Calma 4 Nordeste 0 899 1.6 81
2018-10-15 22:00:00 8.8 0 Calma 11 Nordeste 0 898.4 1.4 81
2018-10-15 21:00:00 8.9 4 Nordeste 10 Nordeste 0 897.8 1 80
2018-10-15 20:00:00 9 4 Nordeste 18 Nordeste 0 897.4 1.1 77
2018-10-15 19:00:00 10 7 Nordeste 18 Nordeste 0 897 1.1 69
2018-10-15 18:00:00 11 11 Nordeste 21 Nordeste 0 896.8 0.8 62
2018-10-15 17:00:00 11.8 9 Nordeste 18 Nordeste 0 896.3 0.1 57
2018-10-15 16:00:00 12 6 Nordeste 17 Este 0 895.9 -0.9 56
2018-10-15 15:00:00 12.2 8 Nordeste 15 Nordeste 0 896 -0.6 58
2018-10-15 14:00:00 12.3 4 Noroeste 13 Este 0 896.2 -0.5 56
2018-10-15 13:00:00 11.3 6 Nordeste 14 Norte 0 896.8 0.4 58
2018-10-15 12:00:00 11.5 6 Nordeste 16 Norte 0 896.6 0.2 58
2018-10-15 11:00:00 9.5 0 Calma 7 Norte 0 896.7 0.4 62
2018-10-15 10:00:00 8 2 Norte 8 Nordeste 0 896.4 0 71
2018-10-15 09:00:00 5.5 0 Calma 8 Norte 0 896.4 -0.1 77
2018-10-15 08:00:00 6.4 0 Calma 8 Noroeste 0 896.3 0.3 75
2018-10-15 07:00:00 7.5 2 Noroeste 16 Noroeste 0 896.4 0.2 72
2018-10-15 06:00:00 7.5 8 Noroeste 19 Oeste 0 896.5 -0.1 72
2018-10-15 05:00:00 8 13 Noroeste 26 Noroeste 0 896 -0.7 74
2018-10-15 04:00:00 8.1 5 Norte 23 Noroeste 0 896.2 -0.3 77
2018-10-15 03:00:00 8 6 Noroeste 22 Noroeste 0 896.6 0.1 78
2018-10-15 02:00:00 7.5 6 Noroeste 19 Noroeste 0.1 896.7 0.1 83
2018-10-15 01:00:00 7.6 5 Noroeste 40 Noroeste 0 896.5 0.1 77
2018-10-15 00:00:00 8.2 18 Noroeste 32 Oeste 0 896.5 0.3 71
2018-10-14 23:00:00 8 10 Noroeste 25 Oeste 0 896.6 0.6 72
2018-10-14 22:00:00 8.6 13 Noroeste 30 Oeste 0 896.4 1 66
2018-10-14 21:00:00 8.5 12 Noroeste 25 Noroeste 0 896.2 1.2 66
2018-10-14 20:00:00 8.6 8 Noroeste 40 Noroeste 0 896 1.1 62
2018-10-14 19:00:00 8.9 17 Noroeste 40 Noroeste 0 895.4 0.3 61
2018-10-14 18:00:00 9.2 14 Noroeste 36 Noroeste 0 895 0.2 64
2018-10-14 17:00:00 9.4 14 Oeste 35 Noroeste 0 894.9 0.1 62
2018-10-14 16:00:00 10 16 Oeste 35 Noroeste 0 895.1 0.2 62
2018-10-14 15:00:00 10 16 Noroeste 25 Noroeste 0 894.8 0.4 64
2018-10-14 14:00:00 11.4 7 Norte 18 Noroeste 0 894.8 0.6 66
2018-10-14 13:00:00 9.7 10 Noroeste 32 Noroeste 0.3 894.9 2.1 73
2018-10-14 12:00:00 11.5 10 Noroeste 22 Noroeste 0 894.4 1.1 74
2018-10-14 11:00:00 11.1 2 Nordeste 19 Oeste 2.9 894.2 1.1 82
2018-10-14 10:00:00 11.3 5 Noroeste 19 Nordeste 3.3 892.8 -1.6 84
2018-10-14 09:00:00 11.8 6 Nordeste 32 Nordeste 0 893.3 -1.3 80
2018-10-14 08:00:00 12.3 12 Nordeste 25 Nordeste 0.2 893.1 -2.3 75
2018-10-14 07:00:00 13.2 11 Norte 27 Norte 0.1 894.4 -2.2 80
2018-10-14 06:00:00 13.4 5 Nordeste 14 Nordeste 0 894.6 -2 80
2018-10-14 05:00:00 13.6 10 Nordeste 15 Nordeste 0 895.4 -1.8 80
2018-10-14 04:00:00 14 4 Norte 16 Norte 0 896.6 -1.5 76
2018-10-14 03:00:00 14.4 10 Nordeste 28 Nordeste 0 896.6 -2.2 73
2018-10-14 02:00:00 14.4 13 Nordeste 26 Norte 0 897.2 -2 70
2018-10-14 01:00:00 10.9 0 Calma 7 Norte 0 898.1 -2 85
2018-10-14 00:00:00 11.2 0 Calma 9 Noroeste 0 898.8 -1.8 83
2018-10-13 23:00:00 11.8 4 Noroeste 9 Nordeste 0 899.2 -2 82
2018-10-13 22:00:00 12.5 0 Calma 5 Norte 0 900.1 -1.3 77
2018-10-13 21:00:00 14.3 0 Calma 6 Noroeste 0 900.6 -1.1 69
2018-10-13 20:00:00 15.8 0 Calma 6 Este 0 901.2 -1.3 62
2018-10-13 19:00:00 19.6 3 Nordeste 17 Nordeste 0 901.4 -1.6 51
2018-10-13 18:00:00 20.3 10 Nordeste 20 Este 0 901.7 -2.1 49
2018-10-13 17:00:00 19.9 10 Nordeste 23 Norte 0 902.5 -2.4 51
2018-10-13 16:00:00 20.7 11 Nordeste 22 Nordeste 0 903 -2.8 49
2018-10-13 15:00:00 19.6 12 Nordeste -- -- -- 903.8 -2.6 56
2018-10-13 14:00:00 19 6 Nordeste 19 Nordeste 0 904.9 -1.9 59
2018-10-13 13:00:00 18.6 3 Nordeste 13 Este 0 905.8 -1 61
2018-10-13 12:00:00 16.7 2 Nordeste 6 Oeste 0 906.4 -0.2 76
2018-10-13 11:00:00 12.8 4 Oeste 9 Oeste 0 906.8 0.5 90
2018-10-13 10:00:00 11.4 4 Oeste 9 Oeste 0 906.8 0 90
2018-10-13 09:00:00 10.4 4 Oeste 7 Noroeste 0 906.6 -0.4 90
2018-10-13 08:00:00 10 2 Oeste 9 Noroeste 0 906.3 -0.8 90
2018-10-13 07:00:00 9.6 4 Oeste 6 Oeste 0 906.8 -0.6 90
2018-10-13 06:00:00 9.8 0 Calma 4 Oeste 0 907 -0.9 90
2018-10-13 05:00:00 9.9 2 Oeste 5 Noroeste 0 907.1 -1.3 89
2018-10-13 04:00:00 10.2 0 Calma 4 Oeste 0 907.4 -1.5 88
2018-10-13 03:00:00 11.3 0 Calma 6 Nordeste 0 907.9 -1.4 87
2018-10-13 02:00:00 12.3 0 Calma 5 Noroeste 0 908.4 -1.1 87
2018-10-13 01:00:00 12.9 0 Calma 5 Noroeste 0 908.9 -0.3 86
2018-10-13 00:00:00 12.9 2 Noroeste 5 Noroeste 0 909.3 0.5 86
2018-10-12 23:00:00 13.8 2 Noroeste -- -- 0 909.5 1 85
2018-10-12 22:00:00 13.6 0 Calma 7 Noroeste 0 909.2 0.7 82
2018-10-12 21:00:00 14.6 3 Nordeste 6 Nordeste 0 908.8 0.2 79
2018-10-12 20:00:00 15.7 2 Nordeste 9 Este 0 908.5 0 74
2018-10-12 19:00:00 16.6 3 Este 16 Este 0 908.5 -0.3 70
2018-10-12 18:00:00 17.5 9 Nordeste 22 Norte 0 908.6 -0.3 66
2018-10-12 17:00:00 18 10 Nordeste 22 Nordeste 0 908.5 -0.4 64
2018-10-12 16:00:00 17.6 10 Nordeste 24 Nordeste 0 908.8 -0.1 69
2018-10-12 15:00:00 17.8 14 Nordeste 30 Nordeste 0 908.9 0 66
2018-10-12 14:00:00 17.8 17 Nordeste 30 Nordeste 0 908.9 0.5 62
2018-10-12 13:00:00 17.4 13 Nordeste 23 Nordeste 0 908.9 1 64
2018-10-12 12:00:00 16.8 10 Nordeste 23 Este 0 908.9 2 75
2018-10-12 11:00:00 15.2 6 Nordeste 13 Este 0 908.4 2.2 83
2018-10-12 10:00:00 14.2 5 Nordeste 12 Nordeste 0 907.9 2.4 89
2018-10-12 09:00:00 12.7 4 Nordeste 13 Nordeste 0 906.9 1.9 90
2018-10-12 08:00:00 -- 3 Nordeste 17 Este 0 906.2 1.3 --
2018-10-12 07:00:00 13.2 6 Nordeste 18 Nordeste 0 905.5 0.2 90
2018-10-12 06:00:00 13.8 7 Nordeste 14 Nordeste 0 905 -0.4 90
2018-10-12 05:00:00 13.9 6 Nordeste 13 Nordeste 0.1 904.9 -0.2 91
2018-10-12 04:00:00 14.1 2 Nordeste 9 Este 0 905.3 0.2 90
2018-10-12 03:00:00 13.7 2 Nordeste 12 Nordeste 0 905.4 0.8 89
2018-10-12 02:00:00 12.9 4 Nordeste 9 Nordeste 0 905.1 1.1 87
2018-10-12 01:00:00 13.4 4 Nordeste 10 Este 0 905.1 1.9 86
2018-10-12 00:00:00 13.7 0 Calma 14 Nordeste 0 904.6 1.5 85
2018-10-11 23:00:00 14.2 4 Este 12 Este 0 904 1.5 83
2018-10-11 22:00:00 14.6 4 Nordeste 10 Norte 0 903.2 1.9 79
2018-10-11 21:00:00 15.1 5 Este 11 Este 0 903.1 2.3 81
2018-10-11 20:00:00 15.7 0 Calma 16 Nordeste 0 902.5 2 74
2018-10-11 19:00:00 16.6 3 Nordeste 17 Noroeste 0 901.3 1.4 68
2018-10-11 18:00:00 17 7 Nordeste 19 Norte 0 900.8 0.9 69
2018-10-11 17:00:00 16.5 9 Nordeste 24 Nordeste 0 900.5 0.5 72
2018-10-11 16:00:00 17.1 12 Nordeste 26 Nordeste 0 899.9 -0.3 69
2018-10-11 15:00:00 14.9 11 Norte 26 Nordeste 0 899.9 0 83
2018-10-11 14:00:00 13.2 10 Nordeste 19 Nordeste 0.1 900 0.4 91
2018-10-11 13:00:00 12.7 7 Nordeste 17 Nordeste 2.1 900.2 1.1 91
2018-10-11 12:00:00 12.2 5 Nordeste 12 Este 0.4 899.9 2.1 91
2018-10-11 11:00:00 12.1 5 Nordeste 13 Nordeste 0.2 899.6 2.1 90
2018-10-11 10:00:00 11.9 4 Nordeste 13 Norte 0.1 899.1 1.7 90
2018-10-11 09:00:00 11.8 5 Nordeste 16 Nordeste 0 897.8 0.5 90
2018-10-11 08:00:00 11.9 5 Nordeste 12 Norte 0 897.5 0.2 89
2018-10-11 07:00:00 11.5 2 Norte 16 Nordeste 0 897.4 0.5 89
2018-10-11 06:00:00 11.2 6 Este 14 Nordeste 0 897.3 -0.6 90
2018-10-11 05:00:00 9.8 4 Nordeste 9 Nordeste 0 897.3 -0.4 90
2018-10-11 04:00:00 9.5 3 Nordeste 6 Noroeste 0 896.9 -0.9 90
2018-10-11 03:00:00 9.6 0 Calma 5 Norte 0 897.9 0.3 90
2018-10-11 02:00:00 9.1 0 Calma 5 Noroeste 0 897.7 0.4 89
2018-10-11 01:00:00 10.3 0 Calma 4 Noroeste 0 897.8 0.7 89
2018-10-11 00:00:00 10.2 0 Calma 6 Oeste 0 897.6 0.9 89
2018-10-10 23:00:00 9.8 0 Calma 4 Noroeste 0 897.3 1.2 88
2018-10-10 22:00:00 10.4 0 Calma 5 Nordeste 0 897.1 1.5 86
2018-10-10 21:00:00 10.5 0 Calma 7 Este 0 896.7 1.4 83
2018-10-10 20:00:00 -- 0 Calma 17 Nordeste 0 896.1 0.6 --
2018-10-10 19:00:00 13.2 10 Nordeste 20 Norte 0 895.6 0.1 72
2018-10-10 18:00:00 13.1 9 Nordeste 25 Nordeste 0 895.3 -0.3 72
2018-10-10 17:00:00 13.1 8 Nordeste 21 Nordeste 0 895.5 -0.5 72
2018-10-10 16:00:00 13.2 10 Nordeste 19 Nordeste 0 895.5 -0.6 73
2018-10-10 15:00:00 11.5 6 Nordeste 12 Nordeste 0 895.6 -0.6 84
2018-10-10 14:00:00 10.7 4 Nordeste 10 Este 0 896 -0.1 87
2018-10-10 13:00:00 10 3 Nordeste 8 Este 0 896.1 0.1 89
2018-10-10 12:00:00 9.2 0 Calma 5 Este 0 896.2 0.6 89
2018-10-10 11:00:00 8.9 0 Calma 3 Este 0 896.1 0.8 89
2018-10-10 10:00:00 8.2 3 Noroeste 5 Oeste 0.1 896 1.2 91
2018-10-10 09:00:00 7.7 4 Oeste 6 Oeste 0 895.6 -0.2 91
2018-10-10 08:00:00 7.5 0 Calma 6 Oeste 0 895.3 -0.8 91
2018-10-10 07:00:00 7.6 0 Calma 7 Oeste 0.3 894.8 -1.8 91
2018-10-10 06:00:00 7.3 0 Calma 9 Norte 3.1 895.8 -1.7 91
2018-10-10 05:00:00 7.6 2 Norte 9 Nordeste 3.2 896.1 -1.3 91
2018-10-10 04:00:00 7.9 0 Calma -- -- -- 896.6 -1.1 92
2018-10-10 03:00:00 8 3 Noroeste 8 Oeste 0.6 897.5 -0.7 92
2018-10-10 02:00:00 7.8 0 Calma 13 Noroeste 5.3 897.4 -1.1 92
2018-10-10 01:00:00 8.1 4 Noroeste 8 Oeste 1 897.7 -0.8 91
2018-10-10 00:00:00 8.3 0 Calma 6 Norte 1.6 898.2 0.1 90
2018-10-09 23:00:00 8.4 3 Norte 15 Noroeste 2.2 898.5 0.4 90
2018-10-09 22:00:00 8.8 2 Noroeste 15 Noroeste 0.1 898.5 -- 88
2018-10-09 21:00:00 8.9 7 Noroeste 17 Noroeste 1.3 898.1 0.3 83
2018-10-09 20:00:00 11.4 12 Nordeste 30 Nordeste 0 898.1 0.1 52
2018-10-09 19:00:00 -- -- -- -- -- -- -- -- --
2018-10-09 18:00:00 14.7 6 Nordeste 17 Nordeste 0 897.8 -0.6 43
2018-10-09 17:00:00 14.4 9 Nordeste 20 Nordeste 0 898 -1.1 43
2018-10-09 16:00:00 15.1 8 Norte 24 Nordeste 0 898.1 -1.6 41
2018-10-09 15:00:00 15.7 13 Norte 26 Noroeste 0 898.4 -1.7 42
2018-10-09 14:00:00 15.3 12 Norte 23 Nordeste 0 899.1 -1.2 45
2018-10-09 13:00:00 14.1 11 Nordeste 22 Nordeste 0 899.7 -0.8 49
2018-10-09 12:00:00 13.9 5 Nordeste 13 Nordeste 0 900.1 -0.1 52
2018-10-09 11:00:00 11.9 3 Nordeste 9 Norte 0 900.3 0.5 58
2018-10-09 10:00:00 8 2 Noroeste 9 Oeste 0 900.5 0.4 79
2018-10-09 09:00:00 2.9 3 Oeste 6 Nordeste 0 900.2 0 93
2018-10-09 08:00:00 1.9 2 Noroeste 6 Este 0 899.8 -1.1 92
2018-10-09 07:00:00 2.8 3 Oeste 9 Oeste 0 900.1 -1.4 92
2018-10-09 06:00:00 2.5 0 Calma 9 Oeste 0 900.2 -2 92
2018-10-09 05:00:00 2.3 4 Noroeste 6 Noroeste 0 900.9 -1.2 89
2018-10-09 04:00:00 2.8 0 Calma 6 Noroeste 0 901.5 -0.7 87
2018-10-09 03:00:00 4.3 2 Este 9 Noroeste 0 902.2 0 83
2018-10-09 02:00:00 4.1 2 Noroeste 6 Noroeste 0 902.1 -0.4 82
2018-10-09 01:00:00 4.6 0 Calma 8 Noroeste 0 902.2 -0.1 76
2018-10-09 00:00:00 5.7 4 Noroeste 5 Noroeste 0 902.2 0 70
2018-10-08 23:00:00 8.5 0 Calma 9 Noroeste 0 902.5 0.8 62
2018-10-08 22:00:00 10.3 5 Noroeste 8 Nordeste 0 902.3 0.8 58
2018-10-08 21:00:00 12.8 4 Nordeste 14 Nordeste 0 902.2 0.8 53
2018-10-08 20:00:00 13.8 4 Nordeste 19 Norte 0 901.7 -0.2 50
2018-10-08 19:00:00 15.3 8 Norte 18 Noroeste 0 901.5 -0.9 45
2018-10-08 18:00:00 15.8 2 Nordeste 11 Norte 0 901.4 -0.9 45
2018-10-08 17:00:00 16 6 Norte 21 Norte 0 901.9 -1.3 45
2018-10-08 16:00:00 16.6 10 Norte 22 Noroeste 0 902.4 -1 47
2018-10-08 15:00:00 15.3 7 Norte 25 Norte 0 902.3 -1.5 49
2018-10-08 14:00:00 15.8 6 Norte 18 Nordeste 0 903.2 -- 47
2018-10-08 13:00:00 14.5 10 Noroeste 24 Nordeste 0 903.4 -0.6 49
2018-10-08 12:00:00 14 6 Nordeste 17 Nordeste 0 903.8 0 54
2018-10-08 11:00:00 -- 8 Norte 16 Nordeste 0 -- -- --
2018-10-08 10:00:00 8.9 5 Noroeste 10 Oeste 0 904 0.8 75
2018-10-08 09:00:00 5 6 Oeste 13 Oeste 0 903.8 0.3 83
2018-10-08 08:00:00 3.5 5 Oeste 12 Noroeste 0 903.4 -0.3 85
2018-10-08 07:00:00 3.7 7 Oeste 16 Oeste 0 903.2 -1.1 83
2018-10-08 06:00:00 3.6 7 Oeste 17 Noroeste 0 903.5 -1.6 83
2018-10-08 05:00:00 3.6 8 Oeste 18 Oeste 0 903.7 -1.7 81
2018-10-08 04:00:00 3.7 5 Noroeste 14 Norte 0 904.3 -1.3 82
2018-10-08 03:00:00 3.4 7 Oeste 13 Oeste 0 905.1 -1 81
2018-10-08 02:00:00 3.7 5 Noroeste 9 Oeste 0 905.4 -0.2 78
2018-10-08 01:00:00 5.8 3 Noroeste 14 Oeste 0 905.6 -0.2 73
2018-10-08 00:00:00 7.8 2 Noroeste 26 Noroeste 0 906.1 0.6 69
2018-10-07 23:00:00 8.4 11 Noroeste 28 Noroeste 0 905.6 0.5 66
2018-10-07 22:00:00 8.4 6 Noroeste 23 Oeste 0 905.8 1.3 61
2018-10-07 21:00:00 9.7 12 Norte 23 Norte 0 905.5 1.4 57
2018-10-07 20:00:00 10.6 9 Norte 27 Noroeste 0 905.1 0.6 54
2018-10-07 19:00:00 12.4 9 Noroeste 28 Noroeste 0 904.5 -0.1 49
2018-10-07 18:00:00 12.9 11 Noroeste 30 Noroeste 0 904.1 -0.7 48
2018-10-07 17:00:00 12.7 16 Noroeste -- -- -- 904.5 -0.9 49
2018-10-07 16:00:00 13.6 17 Noroeste 38 Noroeste 0 904.6 -0.8 48
2018-10-07 15:00:00 13.1 14 Norte 39 Noroeste 0 904.8 -0.7 50
2018-10-07 14:00:00 12.6 15 Norte 34 Noroeste 0 905.4 -0.1 53
2018-10-07 13:00:00 11.2 15 Noroeste 40 Noroeste 0 905.4 0.2 59
2018-10-07 12:00:00 10.3 17 Noroeste 45 Noroeste 0 905.5 1 62
2018-10-07 11:00:00 9.4 15 Noroeste 39 Norte 0 905.5 1.1 65
2018-10-07 10:00:00 7.4 18 Norte 38 Norte 0 905.2 1.2 69
2018-10-07 09:00:00 6.5 11 Norte 25 Norte 0 904.5 0.3 71
2018-10-07 08:00:00 5.1 4 Noroeste 24 Noroeste 0 904.4 0.1 69
2018-10-07 07:00:00 5.6 12 Noroeste 37 Norte 0 904 -0.3 67
2018-10-07 06:00:00 6.9 8 Noroeste 17 Norte 0 904.2 -0.1 63
2018-10-07 05:00:00 8.5 8 Norte 22 Norte 0 904.3 0.4 65
2018-10-07 04:00:00 9.3 9 Noroeste 27 Noroeste 0 904.3 0.3 59
2018-10-07 03:00:00 10 8 Noroeste 25 Noroeste 0 904.3 0.8 60
2018-10-07 02:00:00 10.5 5 Norte 32 Noroeste 0 903.9 0.4 62
2018-10-07 01:00:00 11.4 13 Noroeste 39 Noroeste 0 904 1.4 62
2018-10-07 00:00:00 12.9 20 Noroeste 35 Noroeste 0 903.5 1.4 59
2018-10-06 23:00:00 14.5 13 Noroeste 24 Noroeste 0 903.5 1.7 55
2018-10-06 22:00:00 17.5 9 Oeste 29 Noroeste 0 902.6 1.3 40
2018-10-06 21:00:00 19.2 7 Oeste 28 Oeste 0 902.1 1.1 36
2018-10-06 20:00:00 20.7 12 Oeste 37 Noroeste 0 901.8 0.5 33
2018-10-06 19:00:00 21.9 16 Oeste 31 Noroeste 0 901.3 -0.4 31
2018-10-06 18:00:00 24.1 14 Oeste 39 Oeste 0 901 -1.1 29
2018-10-06 17:00:00 24.4 11 Noroeste 32 Noroeste 0 901.3 -1.5 29
2018-10-06 16:00:00 24.9 14 Noroeste 32 Oeste 0 901.7 -1.5 29
2018-10-06 15:00:00 25 13 Noroeste 33 Norte 0 902.1 -1.9 30
2018-10-06 14:00:00 24.5 13 Noroeste 30 Noroeste 0 902.8 -1.5 31
2018-10-06 13:00:00 22.7 7 Nordeste 17 Este 0 903.2 -1.1 36
2018-10-06 12:00:00 21.1 3 Norte 9 Nordeste 0 904 -0.4 38
2018-10-06 11:00:00 17.6 0 Calma 5 Norte 0 904.3 0.6 47
2018-10-06 10:00:00 11.6 3 Nordeste 5 Nordeste 0 904.3 0.9 66
2018-10-06 09:00:00 5.8 2 Oeste 5 Noroeste 0 904.4 1.3 80
2018-10-06 08:00:00 5.1 0 Calma 9 Oeste 0 903.7 0.7 79
2018-10-06 07:00:00 4.7 0 Calma 5 Oeste 0 903.4 0.2 79
2018-10-06 06:00:00 5.9 5 Noroeste 8 Noroeste 0 903.1 -0.1 77
2018-10-06 05:00:00 5.9 2 Noroeste 6 Oeste 0 903 -0.8 73
2018-10-06 04:00:00 6.6 3 Noroeste 8 Oeste 0 903.2 -0.7 72
2018-10-06 03:00:00 6.9 0 Calma 8 Oeste 0 903.2 -0.8 68
2018-10-06 02:00:00 7.6 2 Noroeste 8 Oeste 0 903.8 0.1 66
2018-10-06 01:00:00 7.4 3 Noroeste 6 Noroeste 0 903.9 0.4 65
2018-10-06 00:00:00 8.5 0 Calma 6 Oeste 0 904 1 60
2018-10-05 23:00:00 9.6 4 Noroeste 5 Noroeste 0 903.7 0.9 58
2018-10-05 22:00:00 11.3 0 Calma 5 Noroeste 0 903.5 1.2 55
2018-10-05 21:00:00 15.1 0 Calma 10 Norte 0 903 0.8 45
2018-10-05 20:00:00 18.8 3 Noroeste 10 Norte 0 902.8 0.6 40
2018-10-05 19:00:00 22.2 3 Norte 14 Nordeste 0 902.3 -0.3 37
2018-10-05 18:00:00 23.3 10 Nordeste 20 Norte 0 902.2 -1 35
2018-10-05 17:00:00 23.7 11 Nordeste 23 Nordeste 0 902.2 -1.5 35
2018-10-05 16:00:00 24.5 10 Nordeste 22 Norte 0 902.6 -1.9 34
2018-10-05 15:00:00 24.4 9 Nordeste 21 Este 0 903.2 -1.9 36
2018-10-05 14:00:00 22.3 8 Nordeste 18 Nordeste 0 903.7 -1.6 39
2018-10-05 13:00:00 20.7 6 Nordeste 12 Este 0 904.5 -1 42
2018-10-05 12:00:00 19.1 4 Norte 10 Nordeste 0 905.1 -0.3 47
2018-10-05 11:00:00 15.4 3 Noroeste 7 Oeste 0 905.3 0.1 52
2018-10-05 10:00:00 11.4 0 Calma 5 Noroeste 0 905.5 0.4 65
2018-10-05 09:00:00 5.3 0 Calma 5 Oeste 0 905.4 0.6 83
2018-10-05 08:00:00 3.6 3 Oeste 5 Oeste 0 905.2 0.3 82
2018-10-05 07:00:00 5.1 3 Noroeste 9 Oeste 0 905.1 -0.3 77
2018-10-05 06:00:00 5.4 0 Calma 9 Noroeste 0 904.8 -0.5 77
2018-10-05 05:00:00 5.5 6 Oeste 8 Oeste 0 904.9 -0.6 76
2018-10-05 04:00:00 7.1 4 Nordeste 12 Noroeste 0 905.4 -0.3 70
2018-10-05 03:00:00 7.1 0 Calma 7 Noroeste 0 905.3 -0.6 69
2018-10-05 02:00:00 7.4 3 Noroeste 6 Noroeste 0 905.5 -0.2 65
2018-10-05 01:00:00 8.3 4 Noroeste 8 Oeste 0 905.7 0.3 62
2018-10-05 00:00:00 8.4 3 Oeste 5 Oeste 0 905.9 0.8 61
2018-10-04 23:00:00 9.8 3 Noroeste 6 Noroeste 0 905.7 1 55
2018-10-04 22:00:00 11.5 3 Noroeste 5 Oeste 0 905.4 0.9 50
2018-10-04 21:00:00 15.3 0 Calma 9 Noroeste 0 905.1 0.6 41
2018-10-04 20:00:00 18.7 2 Noroeste 12 Nordeste 0 904.7 0.2 35
2018-10-04 19:00:00 23.2 8 Nordeste 19 Norte 0 904.5 -0.4 30
2018-10-04 18:00:00 23.9 8 Nordeste 21 Nordeste 0 904.5 -0.8 30
2018-10-04 17:00:00 24.3 9 Nordeste 24 Nordeste 0 904.5 -1.5 29
2018-10-04 16:00:00 24.4 11 Nordeste 32 Este 0 904.9 -1.5 30
2018-10-04 15:00:00 24 9 Nordeste 22 Norte 0 905.3 -- 30
2018-10-04 14:00:00 23.7 7 Nordeste 17 Este 0 906 -1.2 31
2018-10-04 13:00:00 22.3 6 Nordeste 14 Este 0 906.4 -0.6 34
2018-10-04 12:00:00 -- -- -- -- -- -- -- -- --
2018-10-04 11:00:00 17.4 0 Calma 5 Norte 0 907.2 0.7 48
2018-10-04 10:00:00 12.1 3 Nordeste 6 Este 0 907 0.6 63
2018-10-04 09:00:00 5.3 0 Calma 8 Oeste 0 906.7 0.4 83
2018-10-04 08:00:00 4.1 4 Noroeste 8 Noroeste 0 906.5 -0.1 85
2018-10-04 07:00:00 4.4 0 Calma 6 Noroeste 0 906.4 -0.9 83
2018-10-04 06:00:00 4.8 3 Noroeste 6 Oeste 0 906.3 -1.6 80
2018-10-04 05:00:00 5.4 0 Calma 5 Noroeste 0 906.6 -1.6 77
2018-10-04 04:00:00 5.9 0 Calma 6 Noroeste 0 907.3 -1.2 75
2018-10-04 03:00:00 7 3 Oeste 7 Noroeste 0 907.9 -0.7 71
2018-10-04 02:00:00 7.5 5 Noroeste 8 Noroeste 0 908.2 -0.3 68
2018-10-04 01:00:00 7.9 3 Oeste 4 Oeste 0 908.5 0.3 62
2018-10-04 00:00:00 9.8 3 Noroeste 7 Noroeste 0 908.6 0.6 60
2018-10-03 23:00:00 10.4 2 Norte 6 Oeste 0 908.5 0.7 53
2018-10-03 22:00:00 12.6 3 Noroeste 5 Nordeste 0 908.2 0.7 44
2018-10-03 21:00:00 16 0 Calma 10 Nordeste 0 908 1 37
2018-10-03 20:00:00 20.9 6 Nordeste 13 Nordeste 0 907.8 0.4 32
2018-10-03 19:00:00 24.4 3 Nordeste 20 Noroeste 0 907.5 -0.3 31
2018-10-03 18:00:00 24.8 6 Norte 15 Nordeste 0 907 -1.9 32
2018-10-03 17:00:00 25.1 4 Norte 13 Nordeste 0 907.4 -2.2 30
2018-10-03 16:00:00 -- 4 Nordeste 15 Nordeste 0 907.8 -2 --
2018-10-03 15:00:00 24.4 6 Nordeste 17 Noroeste 0 908.9 -1 32
2018-10-03 14:00:00 23.4 5 Nordeste 18 Nordeste 0 909.6 -0.6 33
2018-10-03 13:00:00 23 5 Norte 17 Nordeste 0 909.8 -0.1 35
2018-10-03 12:00:00 22 4 Norte 14 Nordeste 0 909.9 0.3 37
2018-10-03 11:00:00 18.1 0 Calma 7 Nordeste 0 910.2 0.8 43
2018-10-03 10:00:00 13.1 3 Oeste 7 Oeste 0 909.9 0.8 53
2018-10-03 09:00:00 8.2 4 Oeste 8 Oeste 0 909.6 0.4 62
2018-10-03 08:00:00 6.7 4 Noroeste 13 Oeste 0 909.4 0.2 61
2018-10-03 07:00:00 6.8 4 Noroeste 9 Oeste 0 909.1 0 59
2018-10-03 06:00:00 6.1 3 Noroeste 7 Noroeste 0 909.2 0.1 59
2018-10-03 05:00:00 7.1 4 Noroeste 12 Oeste 0 909.2 -0.2 56
2018-10-03 04:00:00 8 5 Oeste 10 Oeste 0 909.1 -0.6 56
2018-10-03 03:00:00 8.4 0 Calma 10 Oeste 0 909.1 -0.6 53
2018-10-03 02:00:00 7.9 5 Oeste 9 Noroeste 0 909.4 -0.2 53
2018-10-03 01:00:00 9 4 Oeste 10 Oeste 0 909.7 0.6 48
2018-10-03 00:00:00 10.4 5 Noroeste 12 Noroeste 0 909.7 1.2 44
2018-10-02 23:00:00 11.5 4 Oeste 10 Oeste 0 909.6 1.7 40
2018-10-02 22:00:00 11.9 2 Noroeste 8 Oeste 0 909.1 1.5 35
2018-10-02 21:00:00 14.9 3 Noroeste 12 Noroeste 0 908.5 1.1 29
2018-10-02 20:00:00 19 4 Oeste 15 Noroeste 0 907.9 0.5 25
2018-10-02 19:00:00 23.2 6 Noroeste 20 Norte 0 907.6 0 23
2018-10-02 18:00:00 23.6 8 Norte 21 Norte 0 907.4 -0.3 22
2018-10-02 17:00:00 24.1 5 Nordeste 19 Nordeste 0 907.4 -1 21
2018-10-02 16:00:00 24 12 Norte 20 Norte 0 907.6 -1 21
2018-10-02 15:00:00 23.9 8 Norte 20 Este 0 907.7 -1.1 21
2018-10-02 14:00:00 23.2 7 Nordeste 20 Norte 0 908.4 -0.3 21
2018-10-02 13:00:00 22 10 Nordeste 21 Nordeste 0 908.6 0.1 21
2018-10-02 12:00:00 20.1 4 Nordeste 10 Este 0 908.8 0.8 24
2018-10-02 11:00:00 14.7 6 Oeste 12 Oeste 0 908.7 0.9 36
2018-10-02 10:00:00 9 4 Noroeste 10 Noroeste 0 908.5 0.5 47
2018-10-02 09:00:00 6.4 2 Noroeste 15 Oeste 0 908 0.1 53
2018-10-02 08:00:00 3.7 6 Oeste 14 Oeste 0 907.8 -0.2 60
2018-10-02 07:00:00 3.3 9 Oeste 15 Oeste 0 908 -0.1 65
2018-10-02 06:00:00 3.4 5 Oeste 9 Oeste 0 907.9 -0.4 65
2018-10-02 05:00:00 4.5 4 Oeste 10 Noroeste 0 908 0.3 61
2018-10-02 04:00:00 4.6 6 Noroeste 10 Oeste 0 908.1 -0.3 64
2018-10-02 03:00:00 6.1 4 Oeste 16 Oeste 0 908.3 0 60
2018-10-02 02:00:00 6.7 7 Oeste 12 Oeste 0 907.7 0 62
2018-10-02 01:00:00 8.8 4 Norte 17 Oeste 0 908.4 0.7 57
2018-10-02 00:00:00 9.4 3 Noroeste 28 Norte 0 908.3 1 56
2018-10-01 23:00:00 11.8 10 Norte 29 Norte 0 907.7 0.8 52
2018-10-01 22:00:00 12.3 5 Norte 17 Norte 0 907.7 1.1 50
2018-10-01 21:00:00 13.3 4 Noroeste 26 Noroeste 0 907.3 0.6 47
2018-10-01 20:00:00 15.6 11 Norte 31 Norte 0 906.9 0.4 39
2018-10-01 19:00:00 18.9 13 Norte 33 Noroeste 0 906.6 -0.2 33
2018-10-01 18:00:00 20.2 13 Norte 32 Noroeste 0 906.7 -0.2 29
2018-10-01 17:00:00 21.7 11 Noroeste 27 Norte 0 906.5 -0.9 27
2018-10-01 16:00:00 22.3 8 Noroeste 30 Norte 0 906.8 -0.8 28
2018-10-01 15:00:00 21.5 12 Norte 34 Norte 0 906.9 -0.6 29
2018-10-01 14:00:00 21.3 12 Norte 31 Norte 0 907.4 -0.3 29
2018-10-01 13:00:00 19.6 15 Norte 32 Noroeste 0 907.6 0.2 30
2018-10-01 12:00:00 18.1 12 Norte 32 Noroeste 0 907.5 0.6 31
2018-10-01 11:00:00 17 16 Noroeste 31 Noroeste 0 907.7 1.6 30
2018-10-01 10:00:00 15.1 5 Noroeste 16 Noroeste 0 907.4 1.6 40
2018-10-01 09:00:00 9.3 0 Calma 14 Noroeste 0 906.9 1.5 60
2018-10-01 08:00:00 5.5 0 Calma 8 Noroeste 0 906.1 0.6 76
2018-10-01 07:00:00 6 0 Calma 5 Nordeste 0 905.8 0 69
2018-10-01 06:00:00 6.6 2 Noroeste 7 Oeste 0 905.4 -0.7 67
2018-10-01 05:00:00 8.5 5 Noroeste 10 Noroeste 0 905.5 -0.5 69
2018-10-01 04:00:00 7.1 0 Calma 8 Noroeste 0 905.8 -0.1 66
2018-10-01 03:00:00 8.2 5 Oeste 8 Oeste 0 906.1 0.2 67
2018-10-01 02:00:00 10.5 0 Calma 11 Noroeste 0 906 0.5 62
2018-10-01 01:00:00 9.8 2 Oeste 7 Noroeste 0 905.9 0.8 52
2018-10-01 00:00:00 11.8 4 Noroeste 8 Noroeste 0 905.9 0.8 50
2018-09-30 23:00:00 15.3 8 Noroeste 16 Oeste 0 905.5 0.8 43
2018-09-30 22:00:00 17.8 7 Noroeste 14 Noroeste 0 905.1 0.9 40
2018-09-30 21:00:00 18 6 Noroeste 12 Noroeste 0 905.1 1 41
2018-09-30 20:00:00 20.6 0 Calma 17 Noroeste 0 904.7 0.5 37
2018-09-30 19:00:00 23.7 10 Noroeste 28 Noroeste 0 904.2 -0.2 34
2018-09-30 18:00:00 24.3 13 Noroeste 27 Noroeste 0 904.1 -0.4 33
2018-09-30 17:00:00 25.1 14 Noroeste 28 Noroeste 0 904.2 -0.5 33
2018-09-30 16:00:00 23.8 13 Noroeste 30 Noroeste 0 904.4 -0.7 34
2018-09-30 15:00:00 24.5 14 Noroeste 29 Noroeste 0 904.5 -0.9 34
2018-09-30 14:00:00 24.8 10 Norte 27 Noroeste 0 904.7 -0.9 34
2018-09-30 13:00:00 23.4 12 Noroeste 23 Oeste 0 905.1 -0.5 34
2018-09-30 12:00:00 23.2 3 Nordeste 8 Nordeste 0 905.4 0.2 36
2018-09-30 11:00:00 19.8 3 Nordeste 6 Nordeste 0 905.6 0.7 46
2018-09-30 10:00:00 14.5 2 Noroeste 6 Oeste 0 905.6 1 62
2018-09-30 09:00:00 10 0 Calma 7 Noroeste 0 905.2 1 78
2018-09-30 08:00:00 7.5 0 Calma 6 Noroeste 0 904.9 0.8 79
2018-09-30 07:00:00 7.4 4 Oeste 6 Oeste 0 904.6 0.2 79
2018-09-30 06:00:00 9.2 2 Noroeste 10 Noroeste 0 904.2 -0.3 77
2018-09-30 05:00:00 9.1 4 Noroeste 8 Noroeste 0 904.1 -0.4 75
2018-09-30 04:00:00 9.9 2 Oeste 9 Oeste 0 904.4 0.1 72
2018-09-30 03:00:00 9.5 4 Noroeste 6 Oeste 0 904.5 0.1 73
2018-09-30 02:00:00 11 2 Nordeste 8 Noroeste 0 904.5 0.4 66
2018-09-30 01:00:00 11.8 0 Calma 8 Oeste 0 904.3 0.5 60
2018-09-30 00:00:00 13.9 4 Noroeste 10 Noroeste 0 904.4 1 54
2018-09-29 23:00:00 16.2 6 Oeste 10 Noroeste 0 904.1 1.1 45
2018-09-29 22:00:00 19.2 5 Noroeste 15 Norte 0 903.8 1.4 38
2018-09-29 21:00:00 19.8 7 Norte 13 Norte 0 903.4 1.2 36
2018-09-29 20:00:00 21.8 4 Noroeste 15 Noroeste 0 903 0.6 33
2018-09-29 19:00:00 25.5 4 Noroeste 14 Noroeste 0 902.4 -0.5 29
2018-09-29 18:00:00 25.9 5 Norte 14 Norte 0 902.2 -1.3 30
2018-09-29 17:00:00 26.1 4 Nordeste 22 Este 0 902.4 -1.7 30
2018-09-29 16:00:00 26 8 Nordeste 19 Nordeste 0 902.9 -1.4 30
2018-09-29 15:00:00 25.9 12 Norte 24 Nordeste 0 903.5 -1.6 31
2018-09-29 14:00:00 24.6 9 Nordeste 19 Este 0 904.1 -1.2 33
2018-09-29 13:00:00 23.7 9 Nordeste 17 Este 0 904.3 -1.3 33
2018-09-29 12:00:00 23.2 5 Nordeste 10 Nordeste 0 905.1 -0.5 36
2018-09-29 11:00:00 19.1 4 Oeste 8 Oeste 0 905.3 -0.3 47
2018-09-29 10:00:00 14.6 5 Oeste 8 Oeste 0 905.6 0.2 61
2018-09-29 09:00:00 10 2 Noroeste 9 Oeste 0 905.6 0.1 79
2018-09-29 08:00:00 6.6 5 Oeste 6 Noroeste 0 905.6 0.1 85
2018-09-29 07:00:00 7.2 0 Calma 4 Noroeste 0 905.4 -0.4 83
2018-09-29 06:00:00 7.6 3 Noroeste 6 Noroeste 0 905.5 -0.7 81
2018-09-29 05:00:00 8.2 4 Oeste 5 Oeste 0 905.5 -0.8 78
2018-09-29 04:00:00 9.1 0 Calma 5 Oeste 0 905.8 -0.6 75
2018-09-29 03:00:00 9.7 3 Nordeste 5 Nordeste 0 906.2 -0.2 69
2018-09-29 02:00:00 11 3 Noroeste -- -- -- 906.3 0.1 63
2018-09-29 01:00:00 13 7 Oeste 11 Oeste 0 906.4 0.6 57
2018-09-29 00:00:00 12.7 6 Noroeste 11 Oeste 0 906.4 0.8 55
2018-09-28 23:00:00 14.4 8 Noroeste 10 Noroeste 0 906.2 1.1 50
2018-09-28 22:00:00 14.3 3 Noroeste 5 Noroeste 0 905.8 1.1 44
2018-09-28 21:00:00 18.3 0 Calma 14 Noroeste 0 905.6 0.2 36
2018-09-28 20:00:00 21.5 2 Noroeste 12 Nordeste 0 905.1 -0.5 31
2018-09-28 19:00:00 25.5 7 Nordeste 15 Nordeste 0 904.7 -1.2 27
2018-09-28 18:00:00 25.8 9 Nordeste 17 Nordeste 0 905.4 -1.1 27
2018-09-28 17:00:00 26.8 7 Nordeste 20 Este 0 905.6 -1.7 26
2018-09-28 16:00:00 26.3 6 Nordeste 21 Este 0 905.9 -2.2 26
2018-09-28 15:00:00 26.3 7 Nordeste 21 Norte 0 906.5 -2.2 27
2018-09-28 14:00:00 25.7 6 Nordeste 19 Nordeste 0 907.3 -1.7 28
2018-09-28 13:00:00 24.9 4 Nordeste 17 Nordeste 0 908.1 -1.2 31
2018-09-28 12:00:00 23.3 3 Nordeste 11 Este 0.2 908.7 -0.5 35
2018-09-28 11:00:00 18.9 5 Oeste 10 Oeste 0 909 0.1 55
2018-09-28 10:00:00 14.8 3 Oeste 8 Oeste 0 909.3 0.4 71
2018-09-28 09:00:00 10.7 3 Oeste 5 Oeste 0 909.2 -0.1 91
2018-09-28 08:00:00 8.9 3 Noroeste 8 Oeste 0 908.9 -0.7 91
2018-09-28 07:00:00 8.6 2 Noroeste 10 Oeste 0 908.9 -1.2 90
2018-09-28 06:00:00 8.9 0 Calma 5 Noroeste 0 909.3 -1.2 90
2018-09-28 05:00:00 9.9 0 Calma 4 Oeste 0 909.6 -1.4 89
2018-09-28 04:00:00 10.5 0 Calma 6 Noroeste 0 910.1 -1.1 85
2018-09-28 03:00:00 11.4 0 Calma 7 Oeste 0 910.5 -0.9 84
2018-09-28 02:00:00 12 4 Oeste 8 Oeste 0 911 -0.4 82
2018-09-28 01:00:00 13 0 Calma 10 Noroeste 0 911.2 -0.2 75
2018-09-28 00:00:00 13.8 6 Oeste 11 Oeste 0 911.4 0.3 75
2018-09-27 23:00:00 14.7 0 Calma 8 Oeste 0 911.4 0.3 69
2018-09-27 22:00:00 15.8 0 Calma -- -- -- 911.4 0.3 62
2018-09-27 21:00:00 18 3 Norte 6 Norte 0 911.1 -0.3 52
2018-09-27 20:00:00 22.1 3 Norte 15 Norte 0 911.1 -0.5 43
2018-09-27 19:00:00 24.1 7 Nordeste 22 Este 0 911.1 -0.7 41
2018-09-27 18:00:00 24.5 7 Nordeste 19 Nordeste 0 911.4 -1.3 41
2018-09-27 17:00:00 25.5 8 Nordeste 22 Nordeste 0 911.6 -2 39
2018-09-27 16:00:00 25.1 9 Nordeste 17 Nordeste 0 911.8 -2.6 39
2018-09-27 15:00:00 24.7 7 Nordeste 19 Norte 0 912.7 -2.4 41
2018-09-27 14:00:00 23.6 7 Nordeste 14 Nordeste 0 913.6 -1.9 45
2018-09-27 13:00:00 21.8 5 Norte 25 Noroeste 0 914.4 -1.4 50
2018-09-27 12:00:00 20 4 Nordeste 10 Norte 0 915.1 -0.6 56
2018-09-27 11:00:00 17.5 2 Noroeste 7 Norte 0 915.5 0.2 65
2018-09-27 10:00:00 14.9 0 Calma 5 Oeste 0 915.8 0.6 77
2018-09-27 09:00:00 10.9 0 Calma 7 Oeste 0 915.7 0.3 91
2018-09-27 08:00:00 10.2 5 Oeste 9 Oeste 0 915.3 -0.3 92
2018-09-27 07:00:00 10.5 3 Oeste 6 Oeste 0 915.2 -0.7 92
2018-09-27 06:00:00 11.2 0 Calma 2 Noroeste 0 915.4 -0.5 90
2018-09-27 05:00:00 12.7 0 Calma 8 Norte 0 915.6 -0.5 87
2018-09-27 04:00:00 13.4 0 Calma 6 Nordeste 0 915.9 0.2 85
2018-09-27 03:00:00 15.1 0 Calma 9 Nordeste 0 915.9 0.1 80
2018-09-27 02:00:00 15.3 5 Nordeste 10 Este 0 916.1 0.3 80
2018-09-27 01:00:00 14.5 0 Calma 10 Este 0 915.7 0.8 77
2018-09-27 00:00:00 17.1 6 Nordeste 15 Este 0 915.8 1.7 72
2018-09-26 23:00:00 17.5 5 Nordeste 13 Este 0 915.8 2.4 73
2018-09-26 22:00:00 16 4 Norte 16 Norte 0 914.9 1.6 77
2018-09-26 21:00:00 18 0 Calma 10 Oeste 0 914.1 1.2 70
2018-09-26 20:00:00 20.2 0 Calma 13 Norte 0 913.4 -0.1 62
2018-09-26 19:00:00 22.5 5 Noroeste 11 Este 0 913.3 -0.6 59
2018-09-26 18:00:00 22.2 5 Nordeste 11 Este 0 912.9 -1.5 62
2018-09-26 17:00:00 21.6 5 Nordeste 12 Este 0 913.5 -1.2 63
2018-09-26 16:00:00 20.3 3 Nordeste 8 Norte 0 913.9 -0.8 69
2018-09-26 15:00:00 20 2 Norte 10 Nordeste 0 914.4 -0.2 71
2018-09-26 14:00:00 18.5 3 Nordeste 8 Nordeste 0 914.7 0.1 74
2018-09-26 13:00:00 18.5 0 Calma 8 Oeste 0 914.7 0.7 73
2018-09-26 12:00:00 17.3 2 Nordeste 6 Norte 0 914.6 1.1 76
2018-09-26 11:00:00 16.5 0 Calma 3 Noroeste 0 914.6 1.7 74
2018-09-26 10:00:00 15.8 2 Nordeste 3 Nordeste 0 914 1.8 69
2018-09-26 09:00:00 15.3 3 Oeste 6 Oeste 0 913.5 1.6 70
2018-09-26 08:00:00 15.2 4 Oeste 7 Oeste 0 912.9 1.1 70
2018-09-26 07:00:00 15.1 0 Calma 3 Noroeste 0 912.2 0.4 70
2018-09-26 06:00:00 14.8 0 Calma 3 Nordeste 0 911.9 0.3 70
2018-09-26 05:00:00 14.4 0 Calma 4 Noroeste 0 911.8 0.5 69
2018-09-26 04:00:00 13.7 0 Calma 5 Nordeste 0 911.8 0.7 69
2018-09-26 03:00:00 12.6 0 Calma 4 Noroeste 0 911.6 1.5 70
2018-09-26 02:00:00 11.9 4 Noroeste 5 Noroeste 0 911.3 1.5 69
2018-09-26 01:00:00 13.1 2 Norte 13 Noroeste 0 911.1 1.7 62
2018-09-26 00:00:00 13.6 6 Noroeste 9 Noroeste 0 910.1 1 62
2018-09-25 23:00:00 14.5 5 Noroeste 8 Noroeste 0 909.8 1.5 55
2018-09-25 22:00:00 16.8 2 Noroeste 8 Noroeste 0 909.4 1.7 46
2018-09-25 21:00:00 18.9 2 Norte 9 Norte 0 909.1 1.5 41
2018-09-25 20:00:00 23 4 Oeste 15 Noroeste 0 908.3 0.5 35
2018-09-25 19:00:00 26.6 4 Nordeste 15 Nordeste 0 907.7 -- 34
2018-09-25 18:00:00 26.2 5 Nordeste 15 Este 0 907.6 -1.1 31
2018-09-25 17:00:00 26.9 6 Nordeste 17 Norte 0 907.8 -1.5 30
2018-09-25 16:00:00 -- -- -- -- -- -- -- -- --
2018-09-25 15:00:00 26 7 Nordeste 15 Este 0 908.7 -1.5 33
2018-09-25 14:00:00 24.7 7 Nordeste 20 Nordeste 0 909.3 -0.9 34
2018-09-25 13:00:00 23.7 8 Nordeste -- -- -- 909.9 -0.3 33
2018-09-25 12:00:00 22.2 6 Nordeste 17 Norte 0 910.2 0.2 32
2018-09-25 11:00:00 19.8 3 Nordeste 7 Nordeste 0 910.2 0.9 41
2018-09-25 10:00:00 15.8 2 Nordeste 4 Este 0 910.2 0.8 59
2018-09-25 09:00:00 11.1 2 Oeste 8 Noroeste 0 910 1 77
2018-09-25 08:00:00 7.6 0 Calma 6 Oeste 0 909.3 0.1 83
2018-09-25 07:00:00 8.3 0 Calma 5 Oeste 0 909.4 0.1 83
2018-09-25 06:00:00 9.1 2 Noroeste 6 Noroeste 0 909 -0.6 78
2018-09-25 05:00:00 11.2 4 Oeste 12 Oeste 0 909.2 -0.3 80
2018-09-25 04:00:00 10.7 3 Nordeste 12 Noroeste 0 909.3 -0.4 75
2018-09-25 03:00:00 10.7 3 Noroeste 8 Noroeste 0 909.6 -0.2 75
2018-09-25 02:00:00 12.5 2 Noroeste 8 Oeste 0 909.5 -0.5 72
2018-09-25 01:00:00 13.7 4 Noroeste 10 Oeste 0 909.7 0.2 63
2018-09-25 00:00:00 14.1 3 Noroeste 9 Norte 0 909.8 0.4 62
2018-09-24 23:00:00 15.3 0 Calma 6 Norte 0 910 1 60
2018-09-24 22:00:00 17.7 3 Nordeste 12 Norte 0 909.5 0.8 50
2018-09-24 21:00:00 21.7 7 Noroeste 15 Noroeste 0 909.4 1 44
2018-09-24 20:00:00 23.4 2 Norte 21 Norte 0 909 0.1 42
2018-09-24 19:00:00 26.6 8 Noroeste 27 Noroeste 0 908.7 -0.8 38
2018-09-24 18:00:00 27 11 Noroeste 28 Noroeste 0 908.4 -1.5 38
2018-09-24 17:00:00 -- 15 Noroeste 30 Oeste 0 908.9 -1.4 --
2018-09-24 16:00:00 28.3 11 Norte 25 Noroeste 0 909.5 -1.4 36
2018-09-24 15:00:00 28 10 Noroeste 27 Noroeste 0 909.9 -1.5 37
2018-09-24 14:00:00 27.7 13 Noroeste 21 Noroeste 0 910.3 -1.3 37
2018-09-24 13:00:00 26.8 4 Nordeste 13 Nordeste 0 910.9 -0.6 35
2018-09-24 12:00:00 25 4 Nordeste 10 Este 0 911.4 -0.1 38
2018-09-24 11:00:00 22 3 Norte 6 Nordeste 0 911.6 0.8 42
2018-09-24 10:00:00 18.1 3 Nordeste 10 Oeste 0 911.5 0.9 52
2018-09-24 09:00:00 12.2 5 Oeste 9 Oeste 0 911.5 1 69
2018-09-24 08:00:00 8.8 4 Oeste 6 Oeste 0 910.8 0.3 74
2018-09-24 07:00:00 9.7 0 Calma 7 Oeste 0 910.6 -0.2 70
2018-09-24 06:00:00 10.1 0 Calma 9 Oeste 0 910.5 -0.4 66
2018-09-24 05:00:00 11.2 6 Noroeste 9 Noroeste 0 910.5 -0.7 65
2018-09-24 04:00:00 10.8 0 Calma 9 Noroeste 0 910.8 -0.5 62
2018-09-24 03:00:00 12.7 5 Noroeste 10 Oeste 0 910.9 -0.1 58
2018-09-24 02:00:00 14.5 3 Noroeste 16 Oeste 0 911.2 0 51
2018-09-24 01:00:00 13.9 0 Calma 8 Oeste 0 911.3 0.5 53
2018-09-24 00:00:00 13.7 4 Noroeste 12 Noroeste 0 911 0.6 55
2018-09-23 23:00:00 15.6 0 Calma 8 Noroeste 0 911.2 1.8 47
2018-09-23 22:00:00 16.1 0 Calma 11 Noroeste 0 910.8 1.3 45
2018-09-23 21:00:00 18.9 0 Calma 8 Oeste 0 910.4 1.1 38
2018-09-23 20:00:00 25.3 5 Noroeste 24 Noroeste 0 909.4 -0.1 28
2018-09-23 19:00:00 28.3 9 Noroeste 25 Noroeste 0 909.5 -0.3 26
2018-09-23 18:00:00 28.8 14 Noroeste 29 Noroeste 0 909.3 -1 25
2018-09-23 17:00:00 29.8 13 Noroeste 28 Noroeste 0 909.5 -1.3 26
2018-09-23 16:00:00 29.6 12 Noroeste 31 Noroeste 0 909.8 -1.4 26
2018-09-23 15:00:00 29.7 11 Noroeste 27 Noroeste 0 910.3 -1.4 26
2018-09-23 14:00:00 29.9 5 Norte -- -- -- 910.8 -0.9 26
2018-09-23 13:00:00 29.2 5 Norte -- -- -- 911.2 -0.6 27
2018-09-23 12:00:00 27 2 Nordeste 7 Nordeste 0 911.7 0.4 30
2018-09-23 11:00:00 22.8 0 Calma 6 Norte 0 911.7 0.4 41
2018-09-23 10:00:00 17.8 3 Noroeste 5 Noroeste 0 911.8 0.8 54
2018-09-23 09:00:00 12.1 3 Noroeste 9 Noroeste 0 911.3 0.3 73
2018-09-23 08:00:00 9.7 6 Oeste 8 Noroeste 0 911.3 0.3 77
2018-09-23 07:00:00 9.7 4 Noroeste 7 Noroeste 0 911 -0.3 76
2018-09-23 06:00:00 10.7 4 Noroeste 8 Noroeste 0 911 -0.6 74
2018-09-23 05:00:00 10.5 5 Oeste 9 Noroeste 0 911 -0.1 72
2018-09-23 04:00:00 11.4 6 Oeste 8 Oeste 0 911.3 -0.4 70
2018-09-23 03:00:00 11.7 0 Calma 5 Noroeste 0 911.6 -0.1 67
2018-09-23 02:00:00 12.5 4 Noroeste 7 Noroeste 0 911.1 -0.5 62
2018-09-23 01:00:00 14.7 2 Nordeste 11 Oeste 0 911.7 0.5 54
2018-09-23 00:00:00 15.4 6 Oeste 10 Oeste 0 911.7 1 53
2018-09-22 23:00:00 16.5 4 Noroeste 8 Noroeste 0 911.6 1.5 47
2018-09-22 22:00:00 18.3 2 Noroeste 8 Norte 0 911.2 1.4 41
2018-09-22 21:00:00 20 0 Calma 11 Noroeste 0 910.7 1 36
2018-09-22 20:00:00 25.1 6 Noroeste 18 Noroeste 0 910.1 0.3 27
2018-09-22 19:00:00 28.4 10 Noroeste 21 Noroeste 0 909.8 -0.2 24
2018-09-22 18:00:00 29 10 Noroeste 23 Noroeste 0 909.7 -0.4 24
2018-09-22 17:00:00 29.8 8 Noroeste 20 Noroeste 0 909.8 -0.6 25
2018-09-22 16:00:00 29.2 12 Noroeste 23 Noroeste 0 910 -1 26
2018-09-22 15:00:00 29.4 7 Norte 23 Norte 0 910.1 -0.9 29
2018-09-22 14:00:00 28 7 Norte 19 Norte 0 910.4 -0.5 32
2018-09-22 13:00:00 27.3 4 Norte 12 Nordeste 0 911 0.2 34
2018-09-22 12:00:00 25.2 3 Nordeste 10 Noroeste 0 911 0.6 38
2018-09-22 11:00:00 21.9 2 Nordeste 5 Nordeste 0 910.9 0.9 49
2018-09-22 10:00:00 17.4 0 Calma 7 Oeste 0 910.8 0.9 65
2018-09-22 09:00:00 12.8 3 Oeste 10 Noroeste 0 910.4 0.7 83
2018-09-22 08:00:00 10 0 Calma 0 Calma 0 910 0.5 87
2018-09-22 07:00:00 10.5 0 Calma 6 Noroeste 0 909.9 0.2 85
2018-09-22 06:00:00 10.8 3 Oeste 5 Oeste 0 909.7 0.2 84
2018-09-22 05:00:00 11.3 4 Noroeste 6 Noroeste 0 909.5 0.1 83
2018-09-22 04:00:00 12.6 0 Calma 9 Noroeste 0 909.7 0.5 78
2018-09-22 03:00:00 12.8 0 Calma 6 Oeste 0 909.5 0.4 76
2018-09-22 02:00:00 14.3 3 Noroeste 8 Oeste 0 909.4 0.7 70
2018-09-22 01:00:00 15 5 Oeste 8 Oeste 0 909.2 0.6 70
2018-09-22 00:00:00 15.6 2 Noroeste 7 Oeste 0 909.1 1.2 64
2018-09-21 23:00:00 16.3 2 Noroeste 8 Oeste 0 908.7 1.3 59
2018-09-21 22:00:00 18.2 0 Calma 6 Noroeste 0 908.6 1.6 51
2018-09-21 21:00:00 22 5 Norte 15 Norte 0 907.9 1.3 39
2018-09-21 20:00:00 23.2 5 Norte 19 Norte 0 907.4 0.8 37
2018-09-21 19:00:00 25.1 8 Noroeste 24 Noroeste 0 907 0.4 34
2018-09-21 18:00:00 26.1 14 Noroeste 26 Norte 0 906.6 -0.3 33
2018-09-21 17:00:00 27.2 12 Noroeste 24 Noroeste 0 906.6 -0.6 31
2018-09-21 16:00:00 26.9 11 Noroeste 51 Noroeste 0 906.6 -1.1 32
2018-09-21 15:00:00 26.1 7 Noroeste 14 Norte 0 906.9 -0.8 34
2018-09-21 14:00:00 26.3 8 Nordeste 17 Nordeste 0 907.2 -0.4 35
2018-09-21 13:00:00 25.9 5 Nordeste 14 Este 0 907.7 0.3 36
2018-09-21 12:00:00 24.4 3 Nordeste 9 Noroeste 0 907.7 0.5 38
2018-09-21 11:00:00 20.6 6 Oeste 10 Oeste 0 907.6 1.6 52
2018-09-21 10:00:00 17.2 4 Oeste 6 Noroeste 0 907.4 1.2 65
2018-09-21 09:00:00 13.3 4 Noroeste 11 Oeste 0 907.2 0.9 81
2018-09-21 08:00:00 10.8 0 Calma 3 Noroeste 0 906 -0.1 86
2018-09-21 07:00:00 11.8 0 Calma 8 Noroeste 0 906.2 0.6 84
2018-09-21 06:00:00 11.8 4 Noroeste 8 Noroeste 0 906.3 -0.2 85
2018-09-21 05:00:00 12.2 0 Calma 4 Oeste 0 906.1 -0.3 84
2018-09-21 04:00:00 13.2 2 Noroeste 6 Norte 0 905.6 -0.9 82
2018-09-21 03:00:00 13.5 0 Calma 12 Oeste 0 906.5 -0.1 80
2018-09-21 02:00:00 14 4 Noroeste 9 Noroeste 0 906.4 -0.4 83
2018-09-21 01:00:00 14.8 0 Calma 12 Norte 0 906.5 -0.2 81
2018-09-21 00:00:00 13.6 0 Calma 3 Noroeste 0 906.6 0.3 83
2018-09-20 23:00:00 14.4 0 Calma 2 Noroeste 0 906.8 0.6 80
2018-09-20 22:00:00 15.9 0 Calma 6 Oeste 0 906.7 0.5 75
2018-09-20 21:00:00 18.2 0 Calma 13 Noroeste 0 906.3 0.1 65
2018-09-20 20:00:00 20.5 0 Calma 7 Norte 0 906.2 -0.4 62
2018-09-20 19:00:00 22.4 2 Noroeste 4 Noroeste 0 906.2 -1 56
2018-09-20 18:00:00 23.7 2 Oeste 12 Este 0 906.2 -1 47
2018-09-20 17:00:00 23.6 6 Este 15 Nordeste 0 906.6 -0.7 56
2018-09-20 16:00:00 22.9 6 Noroeste 17 Oeste 0.1 907.2 -0.5 53
2018-09-20 15:00:00 20.4 2 Norte 31 Noroeste 0.9 907.2 -1.4 72
2018-09-20 14:00:00 26.2 9 Nordeste 27 Este 0 907.3 -1.4 36
2018-09-20 13:00:00 26.1 7 Nordeste 18 Nordeste 0 907.7 -0.2 38
2018-09-20 12:00:00 23.9 4 Nordeste 8 Nordeste 0 908.6 -0.2 42
2018-09-20 11:00:00 20.5 2 Nordeste 6 Oeste 0 908.7 0.2 52
2018-09-20 10:00:00 16 0 Calma 5 Oeste 0 907.9 -0.6 72
2018-09-20 09:00:00 12.7 0 Calma 5 Noroeste 0 908.8 0.4 87
2018-09-20 08:00:00 11.1 4 Noroeste 7 Noroeste 0 908.5 0 89
2018-09-20 07:00:00 11 0 Calma 8 Oeste 0 908.5 -0.2 88
2018-09-20 06:00:00 11.6 4 Noroeste 6 Noroeste 0 908.4 -0.3 88
2018-09-20 05:00:00 12 0 Calma 6 Noroeste 0 908.5 -0.2 85
2018-09-20 04:00:00 12.9 0 Calma 6 Noroeste 0 908.7 -0.2 85
2018-09-20 03:00:00 12.6 4 Oeste 6 Oeste 0 908.7 -0.4 86
2018-09-20 02:00:00 12.9 0 Calma 4 Noroeste 0 908.7 -0.3 84
2018-09-20 01:00:00 13.9 0 Calma 6 Noroeste 0 908.9 0.3 80
2018-09-20 00:00:00 14.3 3 Noroeste 5 Oeste 0 909.1 0.9 82